sensor_id;sensor_type;location;lat;lon;timestamp;pressure;altitude;pressure_sealevel;temperature;humidity
28630;BME280;15817;42.130;24.762;2022-12-07T00:02:24;100083.63;;;7.25;100.00
28630;BME280;15817;42.130;24.762;2022-12-07T00:05:10;100080.09;;;7.23;100.00
28630;BME280;15817;42.130;24.762;2022-12-07T00:07:44;100084.50;;;7.24;100.00
28630;BME280;15817;42.130;24.762;2022-12-07T00:10:24;100087.09;;;7.19;100.00
28630;BME280;15817;42.130;24.762;2022-12-07T00:12:53;100083.56;;;7.19;100.00
28630;BME280;15817;42.130;24.762;2022-12-07T00:15:25;100080.00;;;7.14;100.00
28630;BME280;15817;42.130;24.762;2022-12-07T00:18:26;100090.59;;;7.18;100.00
28630;BME280;15817;42.130;24.762;2022-12-07T00:20:52;100086.19;;;7.17;100.00
28630;BME280;15817;42.130;24.762;2022-12-07T00:23:32;100081.69;;;7.10;100.00
28630;BME280;15817;42.130;24.762;2022-12-07T00:26:10;100087.03;;;7.13;100.00
28630;BME280;15817;42.130;24.762;2022-12-07T00:28:40;100075.53;;;7.11;100.00
28630;BME280;15817;42.130;24.762;2022-12-07T00:31:11;100075.53;;;7.10;100.00
28630;BME280;15817;42.130;24.762;2022-12-07T00:34:00;100082.56;;;7.09;100.00
28630;BME280;15817;42.130;24.762;2022-12-07T00:36:39;100104.56;;;7.05;100.00
28630;BME280;15817;42.130;24.762;2022-12-07T00:39:07;100093.97;;;7.05;100.00
28630;BME280;15817;42.130;24.762;2022-12-07T00:41:34;100086.06;;;7.04;100.00
28630;BME280;15817;42.130;24.762;2022-12-07T00:44:04;100081.59;;;7.01;100.00
28630;BME280;15817;42.130;24.762;2022-12-07T00:46:30;100081.56;;;6.98;100.00
28630;BME280;15817;42.130;24.762;2022-12-07T00:49:02;100075.38;;;6.98;100.00
28630;BME280;15817;42.130;24.762;2022-12-07T00:51:36;100080.75;;;7.02;100.00
28630;BME280;15817;42.130;24.762;2022-12-07T00:54:17;100076.28;;;7.00;100.00
28630;BME280;15817;42.130;24.762;2022-12-07T00:56:43;100076.19;;;6.94;100.00
28630;BME280;15817;42.130;24.762;2022-12-07T00:59:12;100082.38;;;6.94;100.00
28630;BME280;15817;42.130;24.762;2022-12-07T01:01:39;100078.81;;;6.89;100.00
28630;BME280;15817;42.130;24.762;2022-12-07T01:04:08;100082.38;;;6.91;100.00
28630;BME280;15817;42.130;24.762;2022-12-07T01:06:38;100078.81;;;6.89;100.00
28630;BME280;15817;42.130;24.762;2022-12-07T01:09:04;100077.94;;;6.88;100.00
28630;BME280;15817;42.130;24.762;2022-12-07T01:11:31;100071.66;;;6.80;100.00
28630;BME280;15817;42.130;24.762;2022-12-07T01:14:00;100070.75;;;6.81;100.00
28630;BME280;15817;42.130;24.762;2022-12-07T01:16:30;100071.66;;;6.80;100.00
28630;BME280;15817;42.130;24.762;2022-12-07T01:18:58;100067.22;;;6.78;100.00
28630;BME280;15817;42.130;24.762;2022-12-07T01:21:30;100072.50;;;6.78;100.00
28630;BME280;15817;42.130;24.762;2022-12-07T01:24:00;100070.75;;;6.78;100.00
28630;BME280;15817;42.130;24.762;2022-12-07T01:26:26;100061.81;;;6.70;100.00
28630;BME280;15817;42.130;24.762;2022-12-07T01:28:53;100059.19;;;6.69;100.00
28630;BME280;15817;42.130;24.762;2022-12-07T01:31:22;100053.84;;;6.66;100.00
28630;BME280;15817;42.130;24.762;2022-12-07T01:33:55;100068.00;;;6.72;100.00
28630;BME280;15817;42.130;24.762;2022-12-07T01:36:32;100045.94;;;6.66;100.00
28630;BME280;15817;42.130;24.762;2022-12-07T01:39:00;100050.38;;;6.68;100.00
28630;BME280;15817;42.130;24.762;2022-12-07T01:41:32;100037.00;;;6.59;100.00
28630;BME280;15817;42.130;24.762;2022-12-07T01:44:21;100044.16;;;6.66;100.00
28630;BME280;15817;42.130;24.762;2022-12-07T01:46:57;100037.97;;;6.64;100.00
28630;BME280;15817;42.130;24.762;2022-12-07T01:52:56;100022.91;;;6.57;100.00
28630;BME280;15817;42.130;24.762;2022-12-07T01:55:25;100028.22;;;6.57;100.00
28630;BME280;15817;42.130;24.762;2022-12-07T01:57:52;100032.59;;;6.58;100.00
28630;BME280;15817;42.130;24.762;2022-12-07T02:00:23;100045.81;;;6.58;100.00
28630;BME280;15817;42.130;24.762;2022-12-07T02:03:34;100040.53;;;6.60;100.00
28630;BME280;15817;42.130;24.762;2022-12-07T02:06:00;100036.09;;;6.54;100.00
28630;BME280;15817;42.130;24.762;2022-12-07T02:08:29;100037.84;;;6.55;100.00
28630;BME280;15817;42.130;24.762;2022-12-07T02:10:55;100029.88;;;6.52;100.00
28630;BME280;15817;42.130;24.762;2022-12-07T02:13:30;100029.88;;;6.52;100.00
28630;BME280;15817;42.130;24.762;2022-12-07T02:23:51;100022.84;;;6.52;100.00
28630;BME280;15817;42.130;24.762;2022-12-07T02:29:27;100020.03;;;6.40;100.00
28630;BME280;15817;42.130;24.762;2022-12-07T02:32:53;100005.88;;;6.34;100.00
28630;BME280;15817;42.130;24.762;2022-12-07T02:45:36;100013.75;;;6.31;100.00
28630;BME280;15817;42.130;24.762;2022-12-07T02:48:08;100004.94;;;6.29;100.00
28630;BME280;15817;42.130;24.762;2022-12-07T02:50:35;100003.09;;;6.25;100.00
28630;BME280;15817;42.130;24.762;2022-12-07T02:53:04;100009.28;;;6.27;100.00
28630;BME280;15817;42.130;24.762;2022-12-07T02:55:37;100000.44;;;6.22;100.00
28630;BME280;15817;42.130;24.762;2022-12-07T02:58:14;100002.22;;;6.26;100.00
28630;BME280;15817;42.130;24.762;2022-12-07T03:01:04;99988.06;;;6.19;100.00
28630;BME280;15817;42.130;24.762;2022-12-07T03:03:34;99983.69;;;6.20;100.00
28630;BME280;15817;42.130;24.762;2022-12-07T03:06:24;99977.47;;;6.16;100.00
28630;BME280;15817;42.130;24.762;2022-12-07T03:09:14;99986.31;;;6.20;100.00
28630;BME280;15817;42.130;24.762;2022-12-07T03:11:48;99981.97;;;6.25;100.00
28630;BME280;15817;42.130;24.762;2022-12-07T03:14:27;99980.19;;;6.21;100.00
28630;BME280;15817;42.130;24.762;2022-12-07T03:17:01;99989.91;;;6.26;100.00
28630;BME280;15817;42.130;24.762;2022-12-07T03:19:32;99986.38;;;6.23;100.00
28630;BME280;15817;42.130;24.762;2022-12-07T03:22:03;99996.09;;;6.27;100.00
28630;BME280;15817;42.130;24.762;2022-12-07T03:24:35;99997.84;;;6.26;100.00
28630;BME280;15817;42.130;24.762;2022-12-07T03:27:09;100015.56;;;6.33;100.00
28630;BME280;15817;42.130;24.762;2022-12-07T03:29:52;100010.25;;;6.32;100.00
28630;BME280;15817;42.130;24.762;2022-12-07T03:32:29;99999.66;;;6.29;100.00
28630;BME280;15817;42.130;24.762;2022-12-07T03:35:05;99996.13;;;6.28;100.00
28630;BME280;15817;42.130;24.762;2022-12-07T03:37:57;100012.03;;;6.36;100.00
28630;BME280;15817;42.130;24.762;2022-12-07T03:40:33;100000.59;;;6.34;100.00
28630;BME280;15817;42.130;24.762;2022-12-07T03:43:01;100005.91;;;6.37;100.00
28630;BME280;15817;42.130;24.762;2022-12-07T03:45:40;100008.56;;;6.38;100.00
28630;BME280;15817;42.130;24.762;2022-12-07T03:48:27;100012.03;;;6.33;100.00
28630;BME280;15817;42.130;24.762;2022-12-07T03:51:18;99992.56;;;6.28;100.00
28630;BME280;15817;42.130;24.762;2022-12-07T03:54:25;99998.78;;;6.30;100.00
28630;BME280;15817;42.130;24.762;2022-12-07T03:56:54;99995.25;;;6.29;100.00
28630;BME280;15817;42.130;24.762;2022-12-07T03:59:22;99982.00;;;6.28;100.00
28630;BME280;15817;42.130;24.762;2022-12-07T04:01:53;99977.53;;;6.21;100.00
28630;BME280;15817;42.130;24.762;2022-12-07T04:04:19;99993.41;;;6.22;100.00
28630;BME280;15817;42.130;24.762;2022-12-07T04:06:45;99988.03;;;6.16;100.00
28630;BME280;15817;42.130;24.762;2022-12-07T04:09:11;99983.56;;;6.13;100.00
28630;BME280;15817;42.130;24.762;2022-12-07T04:11:37;99987.97;;;6.10;100.00
28630;BME280;15817;42.130;24.762;2022-12-07T04:14:17;99987.97;;;6.13;100.00
28630;BME280;15817;42.130;24.762;2022-12-07T04:16:57;99990.59;;;6.10;100.00
28630;BME280;15817;42.130;24.762;2022-12-07T04:19:33;99990.50;;;6.05;100.00
28630;BME280;15817;42.130;24.762;2022-12-07T04:22:01;99986.16;;;6.07;100.00
28630;BME280;15817;42.130;24.762;2022-12-07T04:24:35;99980.91;;;6.10;100.00
28630;BME280;15817;42.130;24.762;2022-12-07T04:27:00;99978.19;;;6.06;100.00
28630;BME280;15817;42.130;24.762;2022-12-07T04:29:29;99972.84;;;6.01;100.00
28630;BME280;15817;42.130;24.762;2022-12-07T04:31:54;99974.72;;;6.08;100.00
28630;BME280;15817;42.130;24.762;2022-12-07T04:34:20;99965.00;;;6.06;100.00
28630;BME280;15817;42.130;24.762;2022-12-07T04:36:49;99972.84;;;6.01;100.00
28630;BME280;15817;42.130;24.762;2022-12-07T04:39:25;99978.06;;;5.95;100.00
28630;BME280;15817;42.130;24.762;2022-12-07T04:41:54;99970.13;;;5.94;100.00
28630;BME280;15817;42.130;24.762;2022-12-07T04:44:23;99974.59;;;5.98;100.00
28630;BME280;15817;42.130;24.762;2022-12-07T04:46:50;99980.78;;;6.00;100.00
28630;BME280;15817;42.130;24.762;2022-12-07T04:49:16;99979.00;;;6.00;100.00
28630;BME280;15817;42.130;24.762;2022-12-07T04:51:42;99966.59;;;5.95;100.00
28630;BME280;15817;42.130;24.762;2022-12-07T04:54:12;99964.84;;;5.94;100.00
28630;BME280;15817;42.130;24.762;2022-12-07T04:56:41;99971.06;;;5.97;100.00
28630;BME280;15817;42.130;24.762;2022-12-07T04:59:07;99972.78;;;5.95;100.00
28630;BME280;15817;42.130;24.762;2022-12-07T05:01:36;99971.00;;;5.94;100.00
28630;BME280;15817;42.130;24.762;2022-12-07T05:04:08;99977.19;;;5.96;100.00
28630;BME280;15817;42.130;24.762;2022-12-07T05:06:43;99978.94;;;5.96;100.00
28630;BME280;15817;42.130;24.762;2022-12-07T05:09:09;99981.63;;;5.99;100.00
28630;BME280;15817;42.130;24.762;2022-12-07T05:11:35;99989.56;;;6.00;100.00
28630;BME280;15817;42.130;24.762;2022-12-07T05:14:17;99990.41;;;5.98;100.00
28630;BME280;15817;42.130;24.762;2022-12-07T05:16:48;99990.38;;;5.95;100.00
28630;BME280;15817;42.130;24.762;2022-12-07T05:19:15;99983.28;;;5.92;100.00
28630;BME280;15817;42.130;24.762;2022-12-07T05:21:41;99982.34;;;5.89;100.00
28630;BME280;15817;42.130;24.762;2022-12-07T05:24:11;99989.41;;;5.88;100.00
28630;BME280;15817;42.130;24.762;2022-12-07T05:26:38;99982.31;;;5.87;100.00
28630;BME280;15817;42.130;24.762;2022-12-07T05:29:07;99985.91;;;5.91;100.00
28630;BME280;15817;42.130;24.762;2022-12-07T05:31:38;99992.94;;;5.92;100.00
28630;BME280;15817;42.130;24.762;2022-12-07T05:34:13;99992.91;;;5.89;100.00
28630;BME280;15817;42.130;24.762;2022-12-07T05:36:47;100000.91;;;5.93;100.00
28630;BME280;15817;42.130;24.762;2022-12-07T05:39:15;99999.91;;;5.87;100.00
28630;BME280;15817;42.130;24.762;2022-12-07T05:41:50;99998.19;;;5.89;100.00
28630;BME280;15817;42.130;24.762;2022-12-07T05:44:38;99994.69;;;5.90;100.00
28630;BME280;15817;42.130;24.762;2022-12-07T05:47:23;99980.53;;;5.86;100.00
28630;BME280;15817;42.130;24.762;2022-12-07T05:49:52;99993.81;;;5.91;100.00
28630;BME280;15817;42.130;24.762;2022-12-07T05:52:21;99986.75;;;5.88;100.00
28630;BME280;15817;42.130;24.762;2022-12-07T05:54:47;99994.72;;;5.93;100.00
28630;BME280;15817;42.130;24.762;2022-12-07T06:00:54;99990.28;;;5.90;100.00
28630;BME280;15817;42.130;24.762;2022-12-07T06:03:31;100005.38;;;5.97;100.00
28630;BME280;15817;42.130;24.762;2022-12-07T06:06:00;99994.75;;;5.94;100.00
28630;BME280;15817;42.130;24.762;2022-12-07T06:08:28;99994.72;;;5.93;100.00
28630;BME280;15817;42.130;24.762;2022-12-07T06:11:13;100000.06;;;5.96;100.00
28630;BME280;15817;42.130;24.762;2022-12-07T06:14:20;100004.50;;;5.98;100.00
28630;BME280;15817;42.130;24.762;2022-12-07T06:16:48;100002.72;;;5.97;100.00
28630;BME280;15817;42.130;24.762;2022-12-07T06:19:14;100012.44;;;6.01;100.00
28630;BME280;15817;42.130;24.762;2022-12-07T06:21:46;100002.72;;;5.97;100.00
28630;BME280;15817;42.130;24.762;2022-12-07T06:24:21;99995.72;;;6.01;100.00
28630;BME280;15817;42.130;24.762;2022-12-07T06:29:36;100000.19;;;6.05;100.00
28630;BME280;15817;42.130;24.762;2022-12-07T06:32:10;100002.91;;;6.09;100.00
28630;BME280;15817;42.130;24.762;2022-12-07T06:35:10;100019.66;;;6.11;100.00
28630;BME280;15817;42.130;24.762;2022-12-07T06:37:44;100003.75;;;6.07;100.00
28630;BME280;15817;42.130;24.762;2022-12-07T06:40:12;100011.66;;;6.07;100.00
28630;BME280;15817;42.130;24.762;2022-12-07T06:42:38;100022.31;;;6.11;100.00
28630;BME280;15817;42.130;24.762;2022-12-07T06:45:20;100014.34;;;6.08;100.00
28630;BME280;15817;42.130;24.762;2022-12-07T06:47:57;100010.88;;;6.14;100.00
28630;BME280;15817;42.130;24.762;2022-12-07T06:50:49;100013.47;;;6.09;100.00
28630;BME280;15817;42.130;24.762;2022-12-07T08:05:43;100026.72;;;6.80;100.00
28630;BME280;15817;42.130;24.762;2022-12-07T08:08:46;100010.81;;;6.77;100.00
28630;BME280;15817;42.130;24.762;2022-12-07T08:11:14;100015.25;;;6.81;100.00
28630;BME280;15817;42.130;24.762;2022-12-07T08:14:01;100024.19;;;6.93;100.00
28630;BME280;15817;42.130;24.762;2022-12-07T08:16:59;100010.06;;;6.89;100.00
28630;BME280;15817;42.130;24.762;2022-12-07T08:19:28;100014.50;;;6.93;100.00
28630;BME280;15817;42.130;24.762;2022-12-07T08:21:55;100012.81;;;6.98;100.00
28630;BME280;15817;42.130;24.762;2022-12-07T08:24:26;100016.38;;;7.02;100.00
28630;BME280;15817;42.130;24.762;2022-12-07T08:27:00;100013.84;;;7.12;100.00
28630;BME280;15817;42.130;24.762;2022-12-07T08:29:26;100001.56;;;7.20;100.00
28630;BME280;15817;42.130;24.762;2022-12-07T08:31:54;100016.63;;;7.26;100.00
28630;BME280;15817;42.130;24.762;2022-12-07T08:34:40;100014.88;;;7.28;100.00
28630;BME280;15817;42.130;24.762;2022-12-07T08:37:26;100010.50;;;7.32;100.00
28630;BME280;15817;42.130;24.762;2022-12-07T08:40:00;100009.69;;;7.37;100.00
28630;BME280;15817;42.130;24.762;2022-12-07T08:42:29;100007.03;;;7.39;100.00
28630;BME280;15817;42.130;24.762;2022-12-07T08:45:13;100001.72;;;7.39;100.00
28630;BME280;15817;42.130;24.762;2022-12-07T08:48:11;100004.44;;;7.43;100.00
28630;BME280;15817;42.130;24.762;2022-12-07T08:51:02;99993.00;;;7.47;100.00
28630;BME280;15817;42.130;24.762;2022-12-07T08:53:42;99993.94;;;7.54;100.00
28630;BME280;15817;42.130;24.762;2022-12-07T08:56:42;99986.03;;;7.57;100.00
28630;BME280;15817;42.130;24.762;2022-12-07T08:59:19;99989.59;;;7.62;100.00
28630;BME280;15817;42.130;24.762;2022-12-07T09:01:48;99987.91;;;7.70;100.00
28630;BME280;15817;42.130;24.762;2022-12-07T09:04:22;99980.84;;;7.74;100.00
28630;BME280;15817;42.130;24.762;2022-12-07T09:07:08;99974.72;;;7.79;100.00
28630;BME280;15817;42.130;24.762;2022-12-07T09:09:46;99977.38;;;7.79;100.00
28630;BME280;15817;42.130;24.762;2022-12-07T09:12:12;99968.59;;;7.86;100.00
28630;BME280;15817;42.130;24.762;2022-12-07T09:14:43;99961.53;;;7.88;100.00
28630;BME280;15817;42.130;24.762;2022-12-07T09:17:33;99947.44;;;7.91;100.00
28630;BME280;15817;42.130;24.762;2022-12-07T09:20:04;99950.16;;;8.05;100.00
28630;BME280;15817;42.130;24.762;2022-12-07T09:22:34;99946.66;;;8.06;100.00
28630;BME280;15817;42.130;24.762;2022-12-07T09:25:05;99944.88;;;8.11;100.00
28630;BME280;15817;42.130;24.762;2022-12-07T09:27:38;99936.09;;;8.15;100.00
28630;BME280;15817;42.130;24.762;2022-12-07T09:30:05;99931.69;;;8.20;100.00
28630;BME280;15817;42.130;24.762;2022-12-07T09:32:42;99931.75;;;8.27;100.00
28630;BME280;15817;42.130;24.762;2022-12-07T09:35:11;99936.22;;;8.38;100.00
28630;BME280;15817;42.130;24.762;2022-12-07T09:38:12;99920.34;;;8.41;100.00
28630;BME280;15817;42.130;24.762;2022-12-07T09:40:54;99912.38;;;8.44;100.00
28630;BME280;15817;42.130;24.762;2022-12-07T09:43:30;99915.06;;;8.50;100.00
28630;BME280;15817;42.130;24.762;2022-12-07T09:46:16;99914.19;;;8.55;100.00
28630;BME280;15817;42.130;24.762;2022-12-07T09:48:56;99901.81;;;8.54;100.00
28630;BME280;15817;42.130;24.762;2022-12-07T09:54:39;99895.66;;;8.63;100.00
28630;BME280;15817;42.130;24.762;2022-12-07T09:57:31;99896.56;;;8.73;100.00
28630;BME280;15817;42.130;24.762;2022-12-07T10:00:17;99908.94;;;8.80;100.00
28630;BME280;15817;42.130;24.762;2022-12-07T10:02:58;99887.72;;;8.89;100.00
28630;BME280;15817;42.130;24.762;2022-12-07T10:05:51;99899.25;;;9.01;100.00
28630;BME280;15817;42.130;24.762;2022-12-07T10:08:24;99897.47;;;9.00;100.00
28630;BME280;15817;42.130;24.762;2022-12-07T10:10:58;99887.78;;;8.99;100.00
28630;BME280;15817;42.130;24.762;2022-12-07T10:13:41;99885.09;;;9.04;100.00
28630;BME280;15817;42.130;24.762;2022-12-07T10:16:35;99881.59;;;9.08;100.00
28630;BME280;15817;42.130;24.762;2022-12-07T10:19:32;99886.88;;;9.05;100.00
28630;BME280;15817;42.130;24.762;2022-12-07T10:22:24;99882.44;;;9.01;100.00
28630;BME280;15817;42.130;24.762;2022-12-07T10:25:54;99872.72;;;9.06;100.00
28630;BME280;15817;42.130;24.762;2022-12-07T10:28:21;99866.53;;;9.13;100.00
28630;BME280;15817;42.130;24.762;2022-12-07T10:31:02;99855.03;;;9.17;100.00
28630;BME280;15817;42.130;24.762;2022-12-07T10:34:02;99855.91;;;9.25;100.00
28630;BME280;15817;42.130;24.762;2022-12-07T10:36:36;99851.50;;;9.33;100.00
28630;BME280;15817;42.130;24.762;2022-12-07T10:39:13;99849.69;;;9.37;100.00
28630;BME280;15817;42.130;24.762;2022-12-07T10:42:00;99856.78;;;9.38;100.00
28630;BME280;15817;42.130;24.762;2022-12-07T10:44:31;99862.97;;;9.38;100.00
28630;BME280;15817;42.130;24.762;2022-12-07T10:50:18;99874.50;;;9.30;100.00
28630;BME280;15817;42.130;24.762;2022-12-07T11:06:24;99852.38;;;9.40;100.00
28630;BME280;15817;42.130;24.762;2022-12-07T11:08:13;99854.13;;;9.36;100.00
28630;BME280;15817;42.130;24.762;2022-12-07T11:11:36;99839.13;;;9.34;100.00
28630;BME280;15817;42.130;24.762;2022-12-07T11:18:20;99830.25;;;9.44;100.00
28630;BME280;15817;42.130;24.762;2022-12-07T11:41:30;99805.44;;;9.56;100.00
28630;BME280;15817;42.130;24.762;2022-12-07T11:47:45;99805.44;;;9.57;100.00
28630;BME280;15817;42.130;24.762;2022-12-07T11:53:59;99791.28;;;9.55;100.00
28630;BME280;15817;42.130;24.762;2022-12-07T11:56:34;99791.28;;;9.54;100.00
28630;BME280;15817;42.130;24.762;2022-12-07T11:59:12;99797.47;;;9.57;100.00
28630;BME280;15817;42.130;24.762;2022-12-07T12:02:11;99792.16;;;9.56;100.00
28630;BME280;15817;42.130;24.762;2022-12-07T12:08:31;99787.69;;;9.59;100.00
28630;BME280;15817;42.130;24.762;2022-12-07T12:24:20;99769.16;;;9.56;100.00
28630;BME280;15817;42.130;24.762;2022-12-07T12:27:06;99775.34;;;9.55;100.00
28630;BME280;15817;42.130;24.762;2022-12-07T12:29:43;99767.38;;;9.57;100.00
28630;BME280;15817;42.130;24.762;2022-12-07T12:38:32;99756.72;;;9.63;100.00
28630;BME280;15817;42.130;24.762;2022-12-07T12:50:37;99747.00;;;9.63;100.00
28630;BME280;15817;42.130;24.762;2022-12-07T12:57:10;99743.41;;;9.70;100.00
28630;BME280;15817;42.130;24.762;2022-12-07T13:00:23;99740.75;;;9.73;100.00
28630;BME280;15817;42.130;24.762;2022-12-07T13:03:01;99733.69;;;9.68;100.00
28630;BME280;15817;42.130;24.762;2022-12-07T13:09:34;99734.53;;;9.76;100.00
28630;BME280;15817;42.130;24.762;2022-12-07T13:12:29;99725.69;;;9.72;100.00
28630;BME280;15817;42.130;24.762;2022-12-07T13:25:17;99734.53;;;9.73;100.00
28630;BME280;15817;42.130;24.762;2022-12-07T13:28:28;99731.94;;;9.67;100.00
28630;BME280;15817;42.130;24.762;2022-12-07T13:31:32;99739.84;;;9.73;100.00
28630;BME280;15817;42.130;24.762;2022-12-07T13:44:21;99739.91;;;9.65;100.00
28630;BME280;15817;42.130;24.762;2022-12-07T13:47:52;99738.13;;;9.64;100.00
28630;BME280;15817;42.130;24.762;2022-12-07T13:50:54;99742.56;;;9.67;100.00
28630;BME280;15817;42.130;24.762;2022-12-07T13:53:56;99732.81;;;9.63;100.00
28630;BME280;15817;42.130;24.762;2022-12-07T13:57:03;99736.38;;;9.59;100.00
28630;BME280;15817;42.130;24.762;2022-12-07T13:59:49;99741.69;;;9.62;100.00
28630;BME280;15817;42.130;24.762;2022-12-07T14:02:29;99748.75;;;9.61;100.00
28630;BME280;15817;42.130;24.762;2022-12-07T14:12:31;99744.38;;;9.51;100.00
28630;BME280;15817;42.130;24.762;2022-12-07T14:15:03;99739.06;;;9.50;100.00
28630;BME280;15817;42.130;24.762;2022-12-07T14:17:58;99757.66;;;9.54;100.00
28630;BME280;15817;42.130;24.762;2022-12-07T14:20:42;99748.81;;;9.48;100.00
28630;BME280;15817;42.130;24.762;2022-12-07T14:30:02;99745.31;;;9.42;100.00
28630;BME280;15817;42.130;24.762;2022-12-07T14:32:40;99736.44;;;9.39;100.00
28630;BME280;15817;42.130;24.762;2022-12-07T14:35:36;99737.34;;;9.38;100.00
28630;BME280;15817;42.130;24.762;2022-12-07T14:38:28;99734.69;;;9.35;100.00
28630;BME280;15817;42.130;24.762;2022-12-07T14:41:22;99753.25;;;9.38;100.00
28630;BME280;15817;42.130;24.762;2022-12-07T14:44:21;99752.38;;;9.37;100.00
28630;BME280;15817;42.130;24.762;2022-12-07T14:47:20;99750.63;;;9.35;100.00
28630;BME280;15817;42.130;24.762;2022-12-07T14:50:30;99742.69;;;9.33;100.00
28630;BME280;15817;42.130;24.762;2022-12-07T14:56:46;99746.19;;;9.35;100.00
28630;BME280;15817;42.130;24.762;2022-12-07T14:59:48;99748.88;;;9.31;100.00
28630;BME280;15817;42.130;24.762;2022-12-07T15:02:32;99749.75;;;9.28;100.00
28630;BME280;15817;42.130;24.762;2022-12-07T15:05:00;99748.00;;;9.26;100.00
28630;BME280;15817;42.130;24.762;2022-12-07T15:07:49;99732.09;;;9.21;100.00
28630;BME280;15817;42.130;24.762;2022-12-07T15:10:34;99732.97;;;9.20;100.00
28630;BME280;15817;42.130;24.762;2022-12-07T15:20:25;99757.75;;;9.18;100.00
28630;BME280;15817;42.130;24.762;2022-12-07T15:23:05;99752.47;;;9.10;100.00
28630;BME280;15817;42.130;24.762;2022-12-07T15:25:46;99756.84;;;9.13;100.00
28630;BME280;15817;42.130;24.762;2022-12-07T15:28:33;99757.78;;;9.05;100.00
28630;BME280;15817;42.130;24.762;2022-12-07T15:34:28;99759.53;;;9.03;100.00
28630;BME280;15817;42.130;24.762;2022-12-07T15:37:03;99764.84;;;9.03;100.00
28630;BME280;15817;42.130;24.762;2022-12-07T15:40:23;99765.72;;;9.01;100.00
28630;BME280;15817;42.130;24.762;2022-12-07T15:43:24;99782.53;;;9.04;100.00
28630;BME280;15817;42.130;24.762;2022-12-07T15:46:42;99779.88;;;9.01;100.00
28630;BME280;15817;42.130;24.762;2022-12-07T15:49:30;99757.78;;;8.93;100.00
28630;BME280;15817;42.130;24.762;2022-12-07T15:52:09;99768.38;;;8.92;100.00
28630;BME280;15817;42.130;24.762;2022-12-07T15:55:36;99768.38;;;8.90;100.00
28630;BME280;15817;42.130;24.762;2022-12-07T15:58:44;99763.13;;;8.87;100.00
28630;BME280;15817;42.130;24.762;2022-12-07T16:01:33;99771.03;;;8.89;100.00
28630;BME280;15817;42.130;24.762;2022-12-07T16:08:20;99777.25;;;8.83;100.00
28630;BME280;15817;42.130;24.762;2022-12-07T16:32:15;99801.97;;;8.67;100.00
28630;BME280;15817;42.130;24.762;2022-12-07T16:35:33;99792.28;;;8.61;100.00
28630;BME280;15817;42.130;24.762;2022-12-07T16:38:52;99788.75;;;8.61;100.00
28630;BME280;15817;42.130;24.762;2022-12-07T16:46:37;99812.59;;;8.59;100.00
28630;BME280;15817;42.130;24.762;2022-12-07T16:56:15;99812.56;;;8.56;100.00
28630;BME280;15817;42.130;24.762;2022-12-07T16:59:02;99819.66;;;8.59;100.00
28630;BME280;15817;42.130;24.762;2022-12-07T17:01:31;99821.41;;;8.55;100.00
28630;BME280;15817;42.130;24.762;2022-12-07T17:04:03;99843.50;;;8.59;100.00
28630;BME280;15817;42.130;24.762;2022-12-07T17:06:56;99832.91;;;8.57;100.00
28630;BME280;15817;42.130;24.762;2022-12-07T17:09:31;99830.25;;;8.51;100.00
28630;BME280;15817;42.130;24.762;2022-12-07T17:12:03;99832.00;;;8.54;100.00
28630;BME280;15817;42.130;24.762;2022-12-07T17:14:33;99829.38;;;8.48;100.00
28630;BME280;15817;42.130;24.762;2022-12-07T17:17:25;99826.69;;;8.45;100.00
28630;BME280;15817;42.130;24.762;2022-12-07T17:20:00;99824.94;;;8.47;100.00
28630;BME280;15817;42.130;24.762;2022-12-07T17:26:48;99840.84;;;8.42;100.00
28630;BME280;15817;42.130;24.762;2022-12-07T17:29:24;99832.88;;;8.38;100.00
28630;BME280;15817;42.130;24.762;2022-12-07T17:32:09;99827.56;;;8.33;100.00
28630;BME280;15817;42.130;24.762;2022-12-07T17:34:49;99834.56;;;8.31;100.00
28630;BME280;15817;42.130;24.762;2022-12-07T17:37:20;99831.06;;;8.27;100.00
28630;BME280;15817;42.130;24.762;2022-12-07T17:40:07;99845.19;;;8.26;100.00
28630;BME280;15817;42.130;24.762;2022-12-07T17:46:46;99845.16;;;8.22;100.00
28630;BME280;15817;42.130;24.762;2022-12-07T17:49:39;99849.56;;;8.23;100.00
28630;BME280;15817;42.130;24.762;2022-12-07T17:52:45;99849.56;;;8.23;100.00
28630;BME280;15817;42.130;24.762;2022-12-07T17:55:56;99850.47;;;8.19;100.00
28630;BME280;15817;42.130;24.762;2022-12-07T17:58:27;99836.28;;;8.11;100.00
28630;BME280;15817;42.130;24.762;2022-12-07T18:04:56;99831.00;;;8.05;100.00
28630;BME280;15817;42.130;24.762;2022-12-07T18:07:22;99832.75;;;8.04;100.00
28630;BME280;15817;42.130;24.762;2022-12-07T18:10:01;99845.09;;;8.08;100.00
28630;BME280;15817;42.130;24.762;2022-12-07T18:12:46;99834.50;;;8.04;100.00
28630;BME280;15817;42.130;24.762;2022-12-07T18:20:32;99835.38;;;7.99;100.00
28630;BME280;15817;42.130;24.762;2022-12-07T18:28:09;99856.56;;;8.01;100.00
28630;BME280;15817;42.130;24.762;2022-12-07T18:34:14;99857.44;;;7.98;100.00
28630;BME280;15817;42.130;24.762;2022-12-07T18:40:47;99849.44;;;7.89;100.00
28630;BME280;15817;42.130;24.762;2022-12-07T19:19:41;99838.81;;;7.77;100.00
28630;BME280;15817;42.130;24.762;2022-12-07T19:22:47;99846.75;;;7.77;100.00
28630;BME280;15817;42.130;24.762;2022-12-07T19:25:53;99848.50;;;7.77;100.00
28630;BME280;15817;42.130;24.762;2022-12-07T19:29:30;99841.44;;;7.76;100.00
28630;BME280;15817;42.130;24.762;2022-12-07T19:32:19;99848.50;;;7.75;100.00
28630;BME280;15817;42.130;24.762;2022-12-07T19:39:12;99853.78;;;7.74;100.00
28630;BME280;15817;42.130;24.762;2022-12-07T19:49:14;99852.03;;;7.76;100.00
28630;BME280;15817;42.130;24.762;2022-12-07T19:52:02;99848.47;;;7.74;100.00